Time;durP1;ratioP1;P1;durP2;ratioP2;P2;SDS_P1;SDS_P2;PMS_P1;PMS_P2;Temp;Humidity;BMP_temperature;BMP_pressure;BME280_temperature;BME280_humidity;BME280_pressure;Samples;Min_cycle;Max_cycle;Signal;HPM_P1;HPM_P2
2022/07/19 00:02:12;;;;;;;2.58;2.17;;;19.40;74.20;;;;;;5030766;28;20091;-73
2022/07/19 00:04:44;;;;;;;2.35;2.13;;;19.30;74.60;;;;;;5010114;28;20044;-72
2022/07/19 00:07:16;;;;;;;2.10;1.90;;;19.20;74.80;;;;;;5024706;28;20038;-72
2022/07/19 00:09:47;;;;;;;4.22;2.30;;;19.20;75.40;;;;;;5010469;28;20589;-72
2022/07/19 00:12:19;;;;;;;3.15;2.13;;;19.10;75.40;;;;;;5002501;28;20057;-73
2022/07/19 00:14:51;;;;;;;4.97;2.20;;;19.10;76.50;;;;;;5011864;28;20053;-73
2022/07/19 00:17:23;;;;;;;2.03;1.85;;;19.10;76.00;;;;;;5029922;28;20113;-73
2022/07/19 00:19:55;;;;;;;2.55;2.20;;;19.10;76.30;;;;;;5050405;23;20040;-88
2022/07/19 00:22:26;;;;;;;2.63;2.35;;;19.10;76.30;;;;;;5010343;28;20393;-89
2022/07/19 00:24:53;;;;;;;2.63;2.33;;;18.90;76.60;;;;;;5038841;28;20051;-88
2022/07/19 00:27:20;;;;;;;3.83;2.22;;;18.90;77.20;;;;;;5034392;28;20148;-88
2022/07/19 00:29:51;;;;;;;2.58;2.35;;;18.80;77.50;;;;;;5025417;28;20041;-88
2022/07/19 00:32:18;;;;;;;3.30;2.72;;;18.80;77.50;;;;;;5048098;23;21235;-72
2022/07/19 00:34:50;;;;;;;3.15;1.85;;;18.80;77.50;;;;;;5012137;28;20048;-71
2022/07/19 00:37:22;;;;;;;2.83;2.63;;;18.70;77.90;;;;;;4990705;28;20050;-72
2022/07/19 00:39:53;;;;;;;4.20;2.50;;;18.70;77.70;;;;;;5012379;28;20045;-71
2022/07/19 00:42:25;;;;;;;2.33;2.10;;;18.70;78.80;;;;;;5007215;28;20034;-71
2022/07/19 00:44:57;;;;;;;3.20;2.55;;;18.70;78.30;;;;;;5013100;28;20046;-71
2022/07/19 00:47:29;;;;;;;2.10;1.90;;;18.70;78.60;;;;;;5011255;28;20073;-71
2022/07/19 00:50:01;;;;;;;3.08;2.20;;;18.70;78.20;;;;;;5007584;28;20560;-71
2022/07/19 00:52:33;;;;;;;3.45;2.72;;;18.70;78.20;;;;;;5013501;28;20584;-72
2022/07/19 00:55:06;;;;;;;5.93;2.20;;;18.60;78.70;;;;;;4992447;28;20068;-71
2022/07/19 00:57:38;;;;;;;;;;;18.60;79.20;;;;;;4996211;28;20064;-71
2022/07/19 01:00:07;;;;;;;3.42;2.38;;;18.50;79.40;;;;;;5011075;28;19922;-71
2022/07/19 01:02:39;;;;;;;2.85;2.65;;;18.50;79.80;;;;;;5012697;28;20042;-72
2022/07/19 01:05:11;;;;;;;2.85;2.55;;;18.40;80.20;;;;;;4994543;28;20069;-71
2022/07/19 01:07:43;;;;;;;2.42;2.00;;;18.30;80.80;;;;;;4993809;28;20046;-71
2022/07/19 01:10:12;;;;;;;4.47;2.30;;;18.20;81.10;;;;;;4976757;28;20048;-72
2022/07/19 01:12:44;;;;;;;3.90;2.40;;;18.20;81.60;;;;;;5009901;28;20509;-71
2022/07/19 01:15:15;;;;;;;2.75;2.35;;;18.20;82.10;;;;;;4994696;28;20060;-71
2022/07/19 01:17:48;;;;;;;2.92;2.20;;;18.10;82.60;;;;;;4993109;28;20038;-71
2022/07/19 01:20:22;;;;;;;3.58;2.38;;;18.00;83.20;;;;;;4992207;28;20033;-71
2022/07/19 01:22:53;;;;;;;4.28;2.42;;;18.00;83.80;;;;;;4989967;28;20398;-71
2022/07/19 01:25:34;;;;;;;11.52;2.40;;;17.90;84.40;;;;;;5011902;28;20049;-71
2022/07/19 01:28:07;;;;;;;3.42;2.80;;;17.90;85.00;;;;;;4977615;28;20057;-71
2022/07/19 01:30:38;;;;;;;5.90;2.60;;;17.80;85.20;;;;;;4991754;28;20516;-71
2022/07/19 01:33:10;;;;;;;2.65;2.15;;;17.80;85.60;;;;;;4987459;28;20060;-72
2022/07/19 01:35:42;;;;;;;2.85;2.28;;;17.80;85.90;;;;;;4994086;28;20493;-72
2022/07/19 01:38:14;;;;;;;3.72;2.30;;;17.80;86.30;;;;;;4994044;28;20038;-72
2022/07/19 01:40:45;;;;;;;2.83;2.47;;;17.80;86.50;;;;;;4994302;28;20057;-71
2022/07/19 01:43:17;;;;;;;2.90;2.13;;;17.80;86.90;;;;;;5012758;28;20531;-72
2022/07/19 01:45:49;;;;;;;1.92;1.75;;;17.70;87.10;;;;;;5011121;28;20402;-71
2022/07/19 01:48:21;;;;;;;3.58;2.38;;;17.70;87.20;;;;;;5009694;28;20054;-72
2022/07/19 01:50:53;;;;;;;2.40;2.20;;;17.70;87.30;;;;;;4997937;28;20037;-72
2022/07/19 01:53:19;;;;;;;2.22;2.03;;;17.60;87.80;;;;;;5014249;28;20042;-71
2022/07/19 01:55:51;;;;;;;4.63;2.45;;;17.60;88.20;;;;;;4993721;28;20077;-72
2022/07/19 01:58:23;;;;;;;2.80;2.30;;;17.50;88.50;;;;;;4992006;28;20494;-72
2022/07/19 02:00:54;;;;;;;3.78;2.47;;;17.50;89.00;;;;;;5013592;28;20030;-71
2022/07/19 02:03:26;;;;;;;3.33;2.50;;;17.50;89.40;;;;;;4971444;28;20033;-71
2022/07/19 02:05:58;;;;;;;2.85;2.55;;;17.50;89.70;;;;;;4992077;28;20444;-72
2022/07/19 02:08:30;;;;;;;3.08;2.53;;;17.40;89.50;;;;;;5006558;28;20049;-71
2022/07/19 02:11:34;;;;;;;3.65;2.28;;;17.40;90.00;;;;;;4992931;28;20049;-72
2022/07/19 02:13:57;;;;;;;3.22;2.17;;;17.40;90.00;;;;;;5014147;28;20074;-71
2022/07/19 02:16:29;;;;;;;2.88;2.63;;;17.40;90.20;;;;;;5006834;28;20050;-71
2022/07/19 02:19:01;;;;;;;2.83;2.25;;;17.40;90.20;;;;;;5008105;28;20030;-71
2022/07/19 02:21:34;;;;;;;2.40;2.17;;;17.30;90.30;;;;;;5010150;28;20038;-71
2022/07/19 02:24:07;;;;;;;3.42;2.50;;;17.30;90.50;;;;;;5003494;28;20050;-72
2022/07/19 02:26:39;;;;;;;3.78;2.85;;;17.20;90.60;;;;;;5008932;28;20099;-71
2022/07/19 02:29:10;;;;;;;3.45;2.60;;;17.10;91.00;;;;;;4997321;28;20045;-71
2022/07/19 02:31:44;;;;;;;3.22;2.80;;;17.00;91.30;;;;;;4991439;28;20405;-72
2022/07/19 02:34:15;;;;;;;3.13;2.28;;;16.90;91.50;;;;;;5026758;28;20041;-72
2022/07/19 02:36:47;;;;;;;3.33;2.50;;;16.90;91.60;;;;;;5041969;28;20021;-71
2022/07/19 02:39:19;;;;;;;3.38;2.63;;;16.90;91.70;;;;;;5047945;28;20034;-72
2022/07/19 02:41:51;;;;;;;3.40;2.85;;;16.90;91.90;;;;;;5020206;28;20042;-71
2022/07/19 02:44:23;;;;;;;4.13;2.90;;;16.80;92.10;;;;;;5026794;28;20053;-71
2022/07/19 02:46:54;;;;;;;3.10;2.50;;;16.90;92.10;;;;;;5027897;28;20058;-72
2022/07/19 02:49:26;;;;;;;2.72;2.47;;;16.90;92.20;;;;;;5011323;28;20374;-72
2022/07/19 02:51:58;;;;;;;3.28;2.95;;;16.90;92.20;;;;;;5006900;28;20049;-71
2022/07/19 02:54:29;;;;;;;3.17;2.50;;;16.90;92.30;;;;;;5029383;28;20412;-72
2022/07/19 02:57:01;;;;;;;4.88;2.60;;;16.80;92.40;;;;;;5012736;28;20490;-71
2022/07/19 02:59:33;;;;;;;3.13;2.60;;;16.80;92.50;;;;;;5011766;28;20052;-72
2022/07/19 03:02:05;;;;;;;5.22;2.97;;;16.70;92.70;;;;;;5004974;28;20478;-72
2022/07/19 03:04:36;;;;;;;5.88;2.85;;;16.70;92.90;;;;;;5011672;28;20045;-71
2022/07/19 03:07:08;;;;;;;8.10;3.72;;;16.70;93.10;;;;;;5028874;28;20133;-72
2022/07/19 03:09:40;;;;;;;7.97;3.50;;;16.60;93.10;;;;;;5026786;28;20490;-71
2022/07/19 03:12:12;;;;;;;7.93;3.40;;;16.60;93.20;;;;;;5008920;28;20050;-71
2022/07/19 03:14:43;;;;;;;6.85;4.63;;;16.60;93.30;;;;;;5013119;28;20052;-71
2022/07/19 03:17:15;;;;;;;5.88;4.78;;;16.60;93.40;;;;;;5012401;28;20038;-71
2022/07/19 03:19:47;;;;;;;7.63;5.53;;;16.50;93.70;;;;;;5009870;28;20033;-72
2022/07/19 03:22:14;;;;;;;8.25;5.45;;;16.40;94.20;;;;;;5021629;28;20041;-71
2022/07/19 03:24:45;;;;;;;6.35;5.18;;;16.30;94.50;;;;;;5029969;28;20117;-72
2022/07/19 03:27:17;;;;;;;6.43;5.03;;;16.30;94.70;;;;;;4995044;28;20076;-71
2022/07/19 03:29:49;;;;;;;12.40;5.85;;;16.30;94.80;;;;;;5029298;28;20060;-71
2022/07/19 03:32:20;;;;;;;7.28;4.38;;;16.30;94.90;;;;;;5007096;28;20421;-72
2022/07/19 03:34:52;;;;;;;6.28;4.80;;;16.30;94.90;;;;;;5029923;28;20053;-72
2022/07/19 03:37:24;;;;;;;5.88;4.95;;;16.40;95.00;;;;;;5026611;28;20145;-71
2022/07/19 03:39:56;;;;;;;6.68;4.00;;;16.40;94.90;;;;;;5028092;28;20473;-71
2022/07/19 03:42:28;;;;;;;5.90;3.90;;;16.40;94.90;;;;;;5011306;28;20211;-72
2022/07/19 03:44:59;;;;;;;5.10;3.92;;;16.40;95.10;;;;;;5029872;28;20037;-72
2022/07/19 03:47:26;;;;;;;4.40;3.88;;;16.40;95.30;;;;;;5012698;28;20045;-72
2022/07/19 03:49:58;;;;;;;4.88;3.85;;;16.30;95.30;;;;;;5016234;28;20061;-71
2022/07/19 03:52:30;;;;;;;4.65;3.80;;;16.30;95.30;;;;;;5026740;28;20244;-71
2022/07/19 03:55:02;;;;;;;6.47;3.97;;;16.20;95.50;;;;;;5028664;28;20084;-72
2022/07/19 03:57:33;;;;;;;6.32;3.80;;;16.20;95.50;;;;;;5024442;28;20041;-71
2022/07/19 04:00:06;;;;;;;6.45;3.60;;;16.20;95.70;;;;;;5011630;28;20500;-71
2022/07/19 04:02:38;;;;;;;4.40;3.93;;;16.10;96.00;;;;;;5032952;28;20084;-71
2022/07/19 04:05:10;;;;;;;3.72;3.42;;;16.00;96.20;;;;;;5014849;28;20284;-71
2022/07/19 04:07:41;;;;;;;4.70;3.70;;;16.00;96.60;;;;;;5013722;28;20049;-71
2022/07/19 04:10:13;;;;;;;4.72;3.20;;;16.00;96.70;;;;;;5032233;28;20037;-72
2022/07/19 04:12:45;;;;;;;5.22;4.13;;;16.00;96.90;;;;;;5015457;28;20068;-73
2022/07/19 04:15:17;;;;;;;6.13;3.58;;;16.00;97.20;;;;;;5012989;28;20136;-71
2022/07/19 04:17:48;;;;;;;5.88;3.85;;;16.00;97.10;;;;;;5033676;28;20049;-71
2022/07/19 04:20:20;;;;;;;4.40;3.75;;;16.00;97.30;;;;;;5031591;28;20040;-72
2022/07/19 04:22:52;;;;;;;5.80;3.97;;;16.00;97.60;;;;;;5023351;28;20038;-71
2022/07/19 04:25:24;;;;;;;7.65;4.68;;;16.00;97.60;;;;;;5031762;28;20039;-71
2022/07/19 04:27:56;;;;;;;5.97;4.65;;;16.10;97.80;;;;;;5017807;28;20052;-71
2022/07/19 04:30:29;;;;;;;6.30;4.03;;;16.10;97.70;;;;;;5011132;28;20050;-71
2022/07/19 04:33:00;;;;;;;5.95;3.75;;;16.20;97.90;;;;;;5030779;28;20088;-71
2022/07/19 04:35:32;;;;;;;9.30;4.28;;;16.10;98.00;;;;;;5031708;28;20034;-71
2022/07/19 04:38:04;;;;;;;5.63;3.75;;;16.20;98.00;;;;;;5033492;28;20047;-71
2022/07/19 04:40:36;;;;;;;6.65;3.65;;;16.20;98.30;;;;;;5029594;28;20042;-72
2022/07/19 04:43:08;;;;;;;8.70;4.28;;;16.20;98.60;;;;;;5013212;28;20045;-71
2022/07/19 04:45:34;;;;;;;8.45;5.05;;;16.20;98.90;;;;;;5008814;28;20040;-72
2022/07/19 04:48:06;;;;;;;8.60;4.30;;;16.30;99.00;;;;;;5023485;28;20054;-71
2022/07/19 04:50:38;;;;;;;4.75;4.30;;;16.30;98.70;;;;;;5024833;28;20033;-71
2022/07/19 04:53:05;;;;;;;9.68;6.10;;;16.40;98.50;;;;;;5005498;28;20408;-71
2022/07/19 04:55:37;;;;;;;9.45;6.75;;;16.50;98.10;;;;;;5021293;28;20076;-73
2022/07/19 04:58:09;;;;;;;9.73;6.53;;;16.60;97.50;;;;;;5021389;28;20516;-72
2022/07/19 05:00:41;;;;;;;9.23;6.13;;;16.60;97.30;;;;;;5007381;28;20533;-71
2022/07/19 05:03:13;;;;;;;12.70;6.93;;;16.60;97.10;;;;;;4989826;28;20160;-72
2022/07/19 05:05:44;;;;;;;11.05;6.28;;;16.60;97.50;;;;;;5006850;28;20052;-71
2022/07/19 05:08:17;;;;;;;10.30;6.65;;;16.70;98.20;;;;;;5009934;28;20045;-72
2022/07/19 05:10:48;;;;;;;10.82;6.53;;;16.70;98.50;;;;;;5023472;28;20037;-71
2022/07/19 05:13:20;;;;;;;6.90;5.63;;;16.70;97.90;;;;;;5009028;28;20059;-72
2022/07/19 05:15:52;;;;;;;8.25;6.97;;;16.70;97.70;;;;;;5007592;28;20049;-72
2022/07/19 05:18:24;;;;;;;10.38;6.88;;;16.80;97.40;;;;;;5020227;28;20045;-72
2022/07/19 05:20:55;;;;;;;10.73;7.15;;;16.80;97.70;;;;;;5025536;28;20043;-72
2022/07/19 05:23:27;;;;;;;8.55;6.68;;;16.80;97.50;;;;;;5021943;28;20052;-72
2022/07/19 05:25:59;;;;;;;10.98;6.43;;;16.80;97.70;;;;;;5008960;28;20405;-72
2022/07/19 05:28:31;;;;;;;7.60;6.53;;;16.80;98.20;;;;;;5000187;28;20077;-72
2022/07/19 05:31:04;;;;;;;11.70;7.40;;;16.90;98.30;;;;;;5024450;28;20061;-72
2022/07/19 05:33:36;;;;;;;;;;;17.00;98.60;;;;;;5027176;28;20474;-72
2022/07/19 05:36:10;;;;;;;12.10;7.75;;;17.00;98.80;;;;;;5013689;28;20593;-72
2022/07/19 05:38:42;;;;;;;12.50;6.70;;;17.00;98.50;;;;;;5026552;28;20037;-71
2022/07/19 05:41:16;;;;;;;15.30;8.23;;;17.10;98.20;;;;;;5025683;28;20037;-71
2022/07/19 05:43:48;;;;;;;15.13;6.53;;;17.10;98.30;;;;;;5026412;28;20038;-71
2022/07/19 05:46:20;;;;;;;14.18;7.65;;;17.20;98.60;;;;;;5029007;28;20517;-72
2022/07/19 05:48:51;;;;;;;6.97;4.40;;;17.40;99.00;;;;;;5023452;28;20033;-71
2022/07/19 05:51:23;;;;;;;9.55;6.55;;;17.70;96.60;;;;;;5027484;28;20041;-71
2022/07/19 05:53:55;;;;;;;14.60;8.75;;;17.90;97.50;;;;;;5014631;28;20539;-71
2022/07/19 05:56:27;;;;;;;9.95;8.95;;;18.00;98.20;;;;;;5029453;28;20532;-71
2022/07/19 05:59:01;;;;;;;9.30;7.20;;;18.00;98.70;;;;;;5021486;28;20037;-71
2022/07/19 06:01:28;;;;;;;9.15;7.10;;;18.00;99.00;;;;;;5026846;28;20304;-71
2022/07/19 06:04:00;;;;;;;7.60;6.90;;;18.00;98.80;;;;;;5007679;28;20057;-71
2022/07/19 06:06:33;;;;;;;12.95;7.43;;;18.00;98.90;;;;;;5009163;28;20042;-71
2022/07/19 06:09:07;;;;;;;7.97;7.18;;;18.00;99.60;;;;;;5029251;28;20064;-71
2022/07/19 06:11:42;;;;;;;9.13;7.13;;;18.00;99.80;;;;;;5042666;28;20081;-71
2022/07/19 06:14:14;;;;;;;9.38;6.25;;;18.00;99.90;;;;;;5041124;28;20045;-71
2022/07/19 06:16:46;;;;;;;9.23;7.15;;;18.10;99.80;;;;;;5037269;28;20511;-71
2022/07/19 06:19:17;;;;;;;7.47;6.20;;;18.10;99.90;;;;;;5029320;28;20037;-71
2022/07/19 06:21:49;;;;;;;10.30;6.78;;;18.20;99.50;;;;;;5005348;28;20463;-71
2022/07/19 06:24:21;;;;;;;10.43;6.97;;;18.20;99.40;;;;;;5010867;28;20429;-71
2022/07/19 06:26:53;;;;;;;8.93;6.35;;;18.30;99.70;;;;;;5029148;28;20052;-71
2022/07/19 06:29:24;;;;;;;9.95;6.60;;;18.40;99.50;;;;;;5028256;28;20045;-71
2022/07/19 06:31:56;;;;;;;8.32;6.53;;;18.40;99.60;;;;;;4993030;28;20120;-71
2022/07/19 06:34:28;;;;;;;9.02;5.68;;;18.50;99.50;;;;;;5028556;28;20045;-71
2022/07/19 06:37:00;;;;;;;7.72;5.85;;;18.60;99.60;;;;;;5028538;28;20049;-71
2022/07/19 06:39:31;;;;;;;8.50;5.32;;;18.70;99.20;;;;;;5029197;28;20120;-71
2022/07/19 06:42:03;;;;;;;7.32;5.22;;;18.80;99.20;;;;;;5025950;28;20054;-71
2022/07/19 06:44:35;;;;;;;6.18;5.40;;;18.90;99.10;;;;;;5026808;28;20053;-71
2022/07/19 06:47:06;;;;;;;9.65;5.10;;;19.00;99.00;;;;;;5009967;28;20049;-71
2022/07/19 06:49:38;;;;;;;8.43;5.18;;;19.10;98.70;;;;;;5025762;28;20041;-71
2022/07/19 06:52:10;;;;;;;8.13;4.90;;;19.20;98.50;;;;;;5030094;28;20580;-71
2022/07/19 06:54:41;;;;;;;7.70;4.93;;;19.40;99.00;;;;;;5010082;28;20042;-71
2022/07/19 06:57:13;;;;;;;5.45;4.70;;;19.50;98.60;;;;;;5011478;28;20064;-71
2022/07/19 06:59:45;;;;;;;6.05;4.22;;;19.60;98.30;;;;;;5028267;28;20033;-71
2022/07/19 07:02:17;;;;;;;7.65;4.40;;;19.80;97.80;;;;;;5028862;28;20049;-71
2022/07/19 07:04:48;;;;;;;8.85;4.75;;;20.00;97.20;;;;;;5027856;28;20041;-71
2022/07/19 07:07:20;;;;;;;10.77;4.32;;;20.20;96.40;;;;;;4997269;28;20033;-71
2022/07/19 07:09:52;;;;;;;6.28;3.97;;;20.30;95.90;;;;;;5027843;28;20042;-71
2022/07/19 07:12:24;;;;;;;5.28;3.80;;;20.50;95.60;;;;;;5025025;28;20037;-71
2022/07/19 07:14:56;;;;;;;4.90;3.20;;;20.70;94.10;;;;;;5011972;28;20820;-71
2022/07/19 07:17:27;;;;;;;4.32;3.33;;;20.90;93.00;;;;;;5029992;28;20045;-71
2022/07/19 07:19:59;;;;;;;6.47;3.80;;;21.00;92.70;;;;;;5010832;28;20420;-71
2022/07/19 07:22:31;;;;;;;4.07;3.67;;;21.30;92.60;;;;;;5028611;28;20053;-71
2022/07/19 07:25:04;;;;;;;6.55;3.53;;;21.50;92.20;;;;;;5029064;28;20049;-72
2022/07/19 07:27:37;;;;;;;3.63;2.83;;;21.60;91.90;;;;;;5030011;28;20060;-71
2022/07/19 07:30:10;;;;;;;4.07;2.72;;;21.80;91.50;;;;;;4994103;28;20699;-71
2022/07/19 07:32:41;;;;;;;5.10;2.80;;;22.00;89.90;;;;;;5029069;28;20043;-71
2022/07/19 07:35:13;;;;;;;4.93;2.75;;;22.20;90.00;;;;;;5015716;28;20048;-71
2022/07/19 07:37:46;;;;;;;4.25;2.67;;;22.40;88.10;;;;;;5016424;28;20505;-71
2022/07/19 07:40:17;;;;;;;4.65;2.90;;;22.60;86.10;;;;;;5010135;28;20038;-71
2022/07/19 07:42:49;;;;;;;9.77;3.63;;;22.80;86.50;;;;;;5028040;28;20037;-71
2022/07/19 07:45:21;;;;;;;6.93;3.92;;;23.00;85.10;;;;;;5029410;28;20037;-71
2022/07/19 07:47:53;;;;;;;3.10;2.58;;;23.10;83.30;;;;;;5015646;28;20053;-71
2022/07/19 07:50:25;;;;;;;4.25;3.85;;;23.30;83.70;;;;;;5027005;28;20049;-72
2022/07/19 07:52:56;;;;;;;4.60;2.47;;;23.60;82.60;;;;;;5030074;28;20056;-72
2022/07/19 07:55:28;;;;;;;7.60;2.67;;;23.60;81.50;;;;;;5033271;28;20554;-72
2022/07/19 07:58:00;;;;;;;3.40;2.75;;;23.80;80.00;;;;;;5025645;28;20064;-71
2022/07/19 08:00:31;;;;;;;7.07;2.30;;;23.90;80.30;;;;;;5010645;28;20037;-72
2022/07/19 08:03:04;;;;;;;3.75;2.10;;;24.10;79.00;;;;;;5006597;28;20048;-72
2022/07/19 08:05:35;;;;;;;5.80;2.33;;;24.20;78.10;;;;;;5031793;28;20501;-72
2022/07/19 08:08:08;;;;;;;6.78;2.47;;;24.40;77.40;;;;;;5016362;23;20077;-72
2022/07/19 08:10:40;;;;;;;6.07;2.33;;;24.50;75.00;;;;;;5010463;28;20407;-72
2022/07/19 08:13:11;;;;;;;3.20;2.03;;;24.80;74.10;;;;;;5013274;28;20544;-72
2022/07/19 08:15:43;;;;;;;2.60;2.25;;;25.00;72.00;;;;;;5013656;28;20482;-71
2022/07/19 08:18:15;;;;;;;4.13;2.22;;;25.10;70.80;;;;;;5012388;28;20037;-72
2022/07/19 08:20:47;;;;;;;5.95;2.42;;;25.20;68.70;;;;;;5009159;28;20041;-71
2022/07/19 08:23:18;;;;;;;9.02;2.13;;;25.40;68.20;;;;;;4995518;28;20080;-71
2022/07/19 08:25:50;;;;;;;3.50;2.20;;;25.50;68.50;;;;;;4996400;28;20041;-72
2022/07/19 08:28:22;;;;;;;4.57;2.00;;;25.60;67.00;;;;;;5008191;28;20044;-72
2022/07/19 08:30:49;;;;;;;8.38;2.10;;;25.60;66.70;;;;;;4993458;28;20060;-71
2022/07/19 08:33:20;;;;;;;3.85;2.03;;;25.70;67.70;;;;;;5005146;28;20052;-72
2022/07/19 08:35:52;;;;;;;3.30;2.03;;;25.90;65.70;;;;;;5007677;28;20061;-71
2022/07/19 08:38:24;;;;;;;12.50;2.10;;;26.10;65.10;;;;;;5010902;28;20619;-71
2022/07/19 08:40:56;;;;;;;5.10;2.80;;;26.20;64.60;;;;;;5010736;28;20453;-71
2022/07/19 08:43:27;;;;;;;2.40;1.70;;;26.20;63.50;;;;;;5012422;28;20033;-71
2022/07/19 08:46:04;;;;;;;4.40;1.90;;;26.30;64.00;;;;;;4994578;28;20049;-72
2022/07/19 08:48:36;;;;;;;2.42;1.90;;;26.50;63.80;;;;;;4995022;28;20050;-71
2022/07/19 08:51:08;;;;;;;3.80;2.13;;;26.70;62.20;;;;;;5005188;28;20127;-72
2022/07/19 08:53:40;;;;;;;2.40;1.97;;;26.80;61.20;;;;;;5008159;28;20038;-72
2022/07/19 08:59:03;;;;;;;4.30;1.55;;;27.10;59.80;;;;;;5007002;28;20084;-72
2022/07/19 09:01:35;;;;;;;3.45;1.60;;;27.30;57.60;;;;;;4993195;28;20502;-72
2022/07/19 09:04:08;;;;;;;10.38;2.47;;;27.40;58.30;;;;;;5004058;28;20050;-72
2022/07/19 09:06:58;;;;;;;3.05;1.50;;;27.60;57.20;;;;;;5009948;28;20129;-71
2022/07/19 09:09:37;;;;;;;5.82;1.83;;;27.70;55.80;;;;;;5022008;28;20041;-71
2022/07/19 09:12:08;;;;;;;5.72;1.80;;;27.80;56.00;;;;;;5014138;28;20029;-71
2022/07/19 09:14:40;;;;;;;4.22;2.10;;;27.90;55.70;;;;;;5027780;28;20131;-71
2022/07/19 09:17:16;;;;;;;2.70;1.70;;;28.00;55.70;;;;;;5018646;28;20068;-72
2022/07/19 09:19:49;;;;;;;4.63;1.70;;;28.10;56.20;;;;;;5026344;28;20045;-72
2022/07/19 09:22:22;;;;;;;2.30;1.60;;;28.20;55.40;;;;;;5029286;28;20041;-71
2022/07/19 09:24:54;;;;;;;;;;;28.40;54.70;;;;;;5015086;28;20049;-72
2022/07/19 09:27:25;;;;;;;6.00;1.85;;;28.50;53.90;;;;;;5035792;28;19921;-72
2022/07/19 09:29:59;;;;;;;7.80;2.40;;;28.60;54.00;;;;;;5015879;28;20055;-71
2022/07/19 09:32:31;;;;;;;4.70;2.00;;;28.70;52.30;;;;;;5016439;28;20064;-72
2022/07/19 09:35:03;;;;;;;4.93;1.90;;;28.80;52.80;;;;;;5029753;28;20059;-71
2022/07/19 09:37:32;;;;;;;3.05;1.70;;;28.90;53.80;;;;;;5032170;28;20056;-71
2022/07/19 09:40:07;;;;;;;4.47;2.00;;;29.00;54.40;;;;;;5008095;28;20045;-71
2022/07/19 09:42:41;;;;;;;2.65;2.13;;;29.20;54.60;;;;;;5026660;28;20037;-71
2022/07/19 09:45:17;;;;;;;5.05;2.30;;;29.20;54.40;;;;;;5012424;28;20045;-71
2022/07/19 09:47:50;;;;;;;4.25;2.08;;;29.30;54.20;;;;;;5030930;28;20405;-71
2022/07/19 09:50:21;;;;;;;2.20;1.80;;;29.30;52.00;;;;;;5013592;28;20038;-71
2022/07/19 09:52:50;;;;;;;3.20;2.45;;;29.50;51.40;;;;;;5031102;28;20041;-72
2022/07/19 09:55:22;;;;;;;3.63;2.17;;;29.60;52.20;;;;;;5014211;28;20056;-73
2022/07/19 09:57:56;;;;;;;2.55;1.83;;;29.70;52.20;;;;;;4994465;28;20046;-73
2022/07/19 10:00:29;;;;;;;4.97;2.10;;;29.80;50.40;;;;;;5010811;28;20053;-73
2022/07/19 10:03:01;;;;;;;3.03;1.75;;;30.00;48.80;;;;;;5010627;28;20038;-73
2022/07/19 10:05:34;;;;;;;5.82;2.00;;;30.10;49.50;;;;;;4995335;28;20033;-72
2022/07/19 10:08:06;;;;;;;5.85;1.98;;;30.20;48.70;;;;;;4992393;28;20034;-72
2022/07/19 10:10:38;;;;;;;2.40;2.13;;;30.30;48.10;;;;;;5010413;28;20049;-72
2022/07/19 10:13:10;;;;;;;6.63;2.13;;;30.40;47.40;;;;;;5008267;28;20042;-73
2022/07/19 10:15:47;;;;;;;2.47;1.80;;;30.50;47.80;;;;;;5008167;28;20580;-71
2022/07/19 10:18:27;;;;;;;3.53;2.00;;;30.60;48.00;;;;;;5010888;28;20050;-72
2022/07/19 10:21:01;;;;;;;3.63;1.95;;;30.70;48.60;;;;;;5014579;28;20042;-71
2022/07/19 10:23:34;;;;;;;3.25;2.10;;;30.80;47.60;;;;;;5012091;28;20038;-72
2022/07/19 10:26:05;;;;;;;3.90;1.70;;;31.00;47.90;;;;;;5011510;28;20048;-72
2022/07/19 10:28:38;;;;;;;2.30;2.10;;;31.10;47.30;;;;;;5009227;28;20038;-72
2022/07/19 10:31:30;;;;;;;6.68;2.00;;;31.10;46.10;;;;;;5005697;28;20042;-71
2022/07/19 10:34:06;;;;;;;6.20;2.20;;;31.20;46.10;;;;;;5001662;28;20050;-72
2022/07/19 10:36:47;;;;;;;2.53;2.08;;;31.30;46.60;;;;;;5007541;28;20042;-72
2022/07/19 10:39:19;;;;;;;3.40;1.98;;;31.50;45.60;;;;;;5009842;28;20042;-72
2022/07/19 10:42:17;;;;;;;2.97;2.08;;;31.50;44.10;;;;;;5008524;28;20125;-71
2022/07/19 10:44:59;;;;;;;4.53;2.20;;;31.50;44.60;;;;;;5024794;28;20528;-71
2022/07/19 10:47:36;;;;;;;2.40;2.20;;;31.60;45.10;;;;;;5017926;28;20417;-71
2022/07/19 10:50:20;;;;;;;2.10;1.83;;;31.70;44.50;;;;;;5011429;28;20417;-72
2022/07/19 10:52:51;;;;;;;9.50;2.25;;;31.90;45.80;;;;;;5024705;28;20517;-71
2022/07/19 10:55:24;;;;;;;5.13;2.10;;;32.10;44.50;;;;;;5010901;28;20047;-71
2022/07/19 10:57:58;;;;;;;2.45;1.92;;;32.20;44.80;;;;;;5002533;28;20056;-71
2022/07/19 11:00:30;;;;;;;4.72;1.70;;;32.20;43.60;;;;;;5008656;28;20045;-71
2022/07/19 11:03:23;;;;;;;7.15;2.67;;;32.30;43.30;;;;;;5007067;28;20046;-71
2022/07/19 11:05:59;;;;;;;;;;;32.30;43.70;;;;;;5003810;28;20052;-71
2022/07/19 11:08:37;;;;;;;3.72;1.98;;;32.30;42.60;;;;;;5002673;28;20443;-71
2022/07/19 11:11:17;;;;;;;5.75;2.00;;;32.50;42.40;;;;;;5007185;28;20422;-71
2022/07/19 11:13:51;;;;;;;6.30;2.05;;;32.40;42.80;;;;;;5006568;28;20030;-71
2022/07/19 11:16:25;;;;;;;2.90;1.77;;;32.50;42.70;;;;;;5012087;28;20516;-71
2022/07/19 11:19:04;;;;;;;4.55;1.70;;;32.70;43.30;;;;;;5005854;28;20505;-71
2022/07/19 11:21:37;;;;;;;3.13;2.00;;;32.80;43.20;;;;;;4991751;28;20049;-71
2022/07/19 11:24:09;;;;;;;2.38;1.60;;;32.90;41.90;;;;;;5011919;28;20512;-71
2022/07/19 11:26:40;;;;;;;2.47;1.90;;;33.00;42.30;;;;;;5012626;28;20042;-72
2022/07/19 11:29:12;;;;;;;4.07;2.30;;;33.10;42.40;;;;;;4990171;28;20506;-71
2022/07/19 11:31:47;;;;;;;4.57;2.17;;;33.20;41.70;;;;;;5007840;28;20041;-72
2022/07/19 11:34:21;;;;;;;4.57;2.28;;;33.20;41.30;;;;;;5024352;28;20398;-71
2022/07/19 11:36:58;;;;;;;2.35;2.13;;;33.10;42.30;;;;;;5007428;28;20521;-71
2022/07/19 11:39:49;;;;;;;4.05;1.98;;;33.10;41.30;;;;;;5004929;28;20510;-72
2022/07/19 11:42:37;;;;;;;4.22;2.00;;;33.10;41.80;;;;;;5005265;28;20120;-71
2022/07/19 11:45:15;;;;;;;2.90;2.60;;;33.20;43.00;;;;;;5007517;28;20048;-72
2022/07/19 11:47:48;;;;;;;2.88;2.45;;;33.20;43.00;;;;;;5016675;28;20046;-71
2022/07/19 11:50:23;;;;;;;3.78;2.50;;;33.20;42.40;;;;;;5009504;28;20044;-71
2022/07/19 11:52:57;;;;;;;8.95;2.55;;;33.40;43.40;;;;;;5010387;28;20038;-71
2022/07/19 11:55:37;;;;;;;4.30;2.45;;;33.40;42.30;;;;;;5008519;28;20048;-71
2022/07/19 11:58:10;;;;;;;4.80;3.55;;;33.50;41.90;;;;;;4992956;28;20048;-72
2022/07/19 12:00:43;;;;;;;5.30;2.35;;;33.60;41.70;;;;;;5009364;28;20284;-71
2022/07/19 12:03:17;;;;;;;3.17;2.55;;;33.70;41.10;;;;;;5006822;28;20038;-71
2022/07/19 12:06:01;;;;;;;3.05;2.60;;;33.80;40.50;;;;;;5009095;28;20042;-71
2022/07/19 12:08:33;;;;;;;4.75;2.40;;;33.80;40.50;;;;;;5009245;28;20037;-71
2022/07/19 12:11:17;;;;;;;7.93;3.78;;;33.80;40.90;;;;;;5007498;28;20038;-71
2022/07/19 12:13:51;;;;;;;4.40;2.70;;;33.90;39.40;;;;;;5023879;28;20042;-71
2022/07/19 12:16:23;;;;;;;3.53;2.50;;;34.00;39.70;;;;;;5019982;28;20050;-73
2022/07/19 12:18:56;;;;;;;5.45;2.72;;;34.00;39.30;;;;;;5009340;28;20576;-72
2022/07/19 12:21:41;;;;;;;5.93;2.95;;;34.10;38.80;;;;;;5009387;28;20034;-72
2022/07/19 12:24:21;;;;;;;6.65;3.08;;;34.20;39.50;;;;;;5012245;28;20511;-71
2022/07/19 12:27:08;;;;;;;4.95;2.75;;;34.20;38.60;;;;;;5013572;28;20129;-71
2022/07/19 12:29:43;;;;;;;4.90;2.65;;;34.20;38.90;;;;;;4981626;28;20581;-72
2022/07/19 12:32:28;;;;;;;3.63;2.70;;;34.20;39.70;;;;;;5008813;28;20052;-71
2022/07/19 12:35:11;;;;;;;5.18;2.45;;;34.30;39.90;;;;;;5020064;28;20049;-72
2022/07/19 12:37:45;;;;;;;5.43;3.20;;;34.40;40.60;;;;;;5022349;28;20071;-72
2022/07/19 12:40:24;;;;;;;4.43;2.72;;;34.50;40.00;;;;;;5021918;28;20048;-72
2022/07/19 12:43:00;;;;;;;4.22;2.97;;;34.70;40.10;;;;;;5025385;28;20069;-72
2022/07/19 12:45:31;;;;;;;3.95;2.95;;;34.70;40.60;;;;;;5016141;28;20148;-71
2022/07/19 12:48:03;;;;;;;5.38;3.45;;;34.80;40.40;;;;;;4998403;28;20066;-71
2022/07/19 12:50:36;;;;;;;;;;;34.80;40.30;;;;;;5010048;28;20038;-71
2022/07/19 12:53:09;;;;;;;;;;;34.80;39.50;;;;;;5011427;28;20460;-73
2022/07/19 12:55:38;;;;;;;4.18;2.83;;;34.90;39.40;;;;;;5008293;28;19928;-72
2022/07/19 12:58:11;;;;;;;4.32;3.28;;;35.10;39.20;;;;;;5010386;28;20077;-71
2022/07/19 13:00:43;;;;;;;6.55;3.58;;;35.10;39.20;;;;;;5012317;28;20109;-72
2022/07/19 13:03:14;;;;;;;4.72;3.30;;;35.20;39.90;;;;;;5011955;28;20037;-73
2022/07/19 13:05:46;;;;;;;7.25;3.63;;;35.10;39.50;;;;;;5012491;28;20100;-72
2022/07/19 13:08:18;;;;;;;4.30;3.22;;;35.20;39.50;;;;;;4993373;28;20084;-71
2022/07/19 13:10:49;;;;;;;6.80;3.72;;;35.20;40.00;;;;;;5011922;28;20052;-72
2022/07/19 13:13:21;;;;;;;9.77;3.78;;;35.20;39.50;;;;;;5027668;28;20129;-72
2022/07/19 13:15:53;;;;;;;5.53;3.42;;;35.30;39.20;;;;;;5011296;28;20057;-72
2022/07/19 13:18:25;;;;;;;4.97;3.72;;;35.40;39.20;;;;;;5026431;28;20108;-71
2022/07/19 13:20:57;;;;;;;7.88;3.33;;;35.30;38.60;;;;;;5008509;28;20052;-71